createdAt,value
2023-05-24T00:00:14.643Z,14.46
2023-05-24T00:02:41.480Z,14.18
2023-05-24T00:05:09.417Z,15.50
2023-05-24T00:07:37.812Z,15.06
2023-05-24T00:10:05.485Z,14.86
2023-05-24T00:12:32.723Z,15.07
2023-05-24T00:14:59.908Z,14.79
2023-05-24T00:17:27.850Z,14.65
2023-05-24T00:19:57.644Z,14.28
2023-05-24T00:22:27.337Z,14.82
2023-05-24T00:24:55.344Z,14.79
2023-05-24T00:27:22.436Z,14.75
2023-05-24T00:29:50.211Z,14.20
2023-05-24T00:32:17.433Z,14.12
2023-05-24T00:34:44.182Z,14.82
2023-05-24T00:37:11.304Z,14.27
2023-05-24T00:39:41.118Z,15.27
2023-05-24T00:42:08.291Z,14.74
2023-05-24T00:44:37.582Z,15.11
2023-05-24T00:47:05.008Z,14.51
2023-05-24T00:49:32.112Z,14.21
2023-05-24T00:52:00.253Z,14.51
2023-05-24T00:54:27.044Z,14.99
2023-05-24T00:56:55.281Z,14.75
2023-05-24T00:59:23.138Z,14.71
2023-05-24T01:01:50.416Z,14.29
2023-05-24T01:04:17.681Z,14.68
2023-05-24T01:07:24.157Z,14.86
2023-05-24T01:10:14.377Z,14.17
2023-05-24T01:13:13.450Z,14.07
2023-05-24T01:15:45.074Z,14.10
2023-05-24T01:18:35.535Z,14.27
2023-05-24T01:21:55.071Z,14.21
2023-05-24T01:24:59.654Z,15.06
2023-05-24T01:27:26.421Z,14.76
2023-05-24T01:29:54.367Z,14.31
2023-05-24T01:32:21.755Z,14.86
2023-05-24T01:34:49.062Z,14.81
2023-05-24T01:37:16.219Z,14.71
2023-05-24T01:39:42.958Z,14.72
2023-05-24T01:42:24.828Z,14.85
2023-05-24T01:45:06.166Z,15.26
2023-05-24T01:48:04.723Z,15.81
2023-05-24T01:50:39.987Z,14.68
2023-05-24T01:53:09.798Z,16.09
2023-05-24T01:55:36.890Z,16.00
2023-05-24T01:58:04.618Z,14.94
2023-05-24T02:00:31.443Z,15.50
2023-05-24T02:02:58.627Z,15.55
2023-05-24T02:05:25.815Z,15.84
2023-05-24T02:07:52.567Z,15.87
2023-05-24T02:10:19.799Z,15.48
2023-05-24T02:12:46.917Z,15.68
2023-05-24T02:15:17.385Z,15.97
2023-05-24T02:17:46.207Z,16.31
2023-05-24T02:20:13.834Z,17.01
2023-05-24T02:22:40.921Z,16.74
2023-05-24T02:25:08.741Z,17.13
2023-05-24T02:27:37.019Z,16.38
2023-05-24T02:30:04.542Z,17.68
2023-05-24T02:32:44.197Z,17.44
2023-05-24T02:35:11.298Z,16.89
2023-05-24T02:37:39.342Z,16.84
2023-05-24T02:40:06.803Z,17.01
2023-05-24T02:42:34.845Z,17.58
2023-05-24T02:45:01.682Z,16.97
2023-05-24T02:47:29.861Z,17.68
2023-05-24T02:49:57.189Z,17.77
2023-05-24T02:52:24.039Z,18.31
2023-05-24T02:54:53.804Z,17.52
2023-05-24T02:57:21.795Z,18.39
2023-05-24T02:59:48.955Z,18.70
2023-05-24T03:02:15.941Z,18.04
2023-05-24T03:04:42.682Z,17.52
2023-05-24T03:07:09.784Z,17.35
2023-05-24T03:09:36.519Z,18.82
2023-05-24T03:12:03.957Z,17.31
2023-05-24T03:14:33.639Z,17.12
2023-05-24T03:17:01.754Z,17.47
2023-05-24T03:19:29.227Z,18.09
2023-05-24T03:21:56.071Z,18.59
2023-05-24T03:24:23.653Z,18.58
2023-05-24T03:26:50.793Z,18.14
2023-05-24T03:29:17.891Z,17.63
2023-05-24T03:31:45.458Z,19.09
2023-05-24T03:34:12.627Z,17.70
2023-05-24T03:36:39.361Z,18.20
2023-05-24T03:39:06.450Z,18.43
2023-05-24T03:41:35.011Z,17.37
2023-05-24T03:44:05.304Z,17.84
2023-05-24T03:46:35.792Z,18.41
2023-05-24T03:49:03.901Z,18.17
2023-05-24T03:51:31.505Z,18.40
2023-05-24T03:53:58.691Z,17.88
2023-05-24T03:56:26.198Z,19.02
2023-05-24T03:58:54.122Z,17.95
2023-05-24T04:01:32.753Z,18.20
2023-05-24T04:04:00.579Z,18.25
2023-05-24T04:06:27.830Z,18.28
2023-05-24T04:08:59.828Z,19.10
2023-05-24T04:11:26.947Z,18.57
2023-05-24T04:13:57.407Z,18.06
2023-05-24T04:16:24.161Z,16.75
2023-05-24T04:18:51.321Z,17.83
2023-05-24T04:21:18.502Z,17.93
2023-05-24T04:23:45.711Z,18.27
2023-05-24T04:26:13.090Z,18.07
2023-05-24T04:28:39.910Z,17.72
2023-05-24T04:31:06.880Z,17.50
2023-05-24T04:33:33.721Z,17.64
2023-05-24T04:36:00.856Z,17.89
2023-05-24T04:38:28.707Z,17.31
2023-05-24T04:40:57.310Z,17.94
2023-05-24T04:43:24.016Z,18.00
2023-05-24T04:45:51.366Z,18.24
2023-05-24T04:48:18.513Z,18.01
2023-05-24T04:50:45.611Z,18.18
2023-05-24T04:53:12.733Z,17.70
2023-05-24T04:55:42.573Z,17.50
2023-05-24T04:58:10.739Z,17.98
2023-05-24T05:00:37.559Z,18.32
2023-05-24T05:03:04.764Z,18.59
2023-05-24T05:05:31.645Z,17.35
2023-05-24T05:08:01.218Z,16.51
2023-05-24T05:10:27.931Z,16.99
2023-05-24T05:12:54.715Z,17.44
2023-05-24T05:15:22.909Z,17.37
2023-05-24T05:17:49.803Z,17.86
2023-05-24T05:20:16.650Z,18.38
2023-05-24T05:22:47.234Z,18.55
2023-05-24T05:25:13.972Z,17.48
2023-05-24T05:27:41.204Z,18.27
2023-05-24T05:30:08.580Z,19.33
2023-05-24T05:32:35.850Z,18.51
2023-05-24T05:35:03.476Z,18.93
2023-05-24T05:37:30.202Z,18.75
2023-05-24T05:39:56.989Z,18.11
2023-05-24T05:42:24.109Z,17.33
2023-05-24T05:44:51.289Z,16.64
2023-05-24T05:47:18.103Z,18.53
2023-05-24T05:49:44.874Z,18.49
2023-05-24T05:52:11.651Z,18.58
2023-05-24T05:54:38.554Z,18.15
2023-05-24T05:57:06.530Z,19.25
2023-05-24T05:59:33.734Z,18.67
2023-05-24T06:02:00.946Z,19.40
2023-05-24T06:04:28.060Z,18.96
2023-05-24T06:06:55.261Z,18.69
2023-05-24T06:09:22.424Z,19.21
2023-05-24T06:11:49.645Z,18.93
2023-05-24T06:14:16.833Z,19.11
2023-05-24T06:16:43.773Z,19.44
2023-05-24T06:19:14.016Z,18.57
2023-05-24T06:21:41.910Z,18.76
2023-05-24T06:24:10.717Z,18.35
2023-05-24T06:26:37.806Z,18.62
2023-05-24T06:29:04.954Z,18.64
2023-05-24T06:31:32.272Z,18.70
2023-05-24T06:34:03.794Z,19.49
2023-05-24T06:36:31.784Z,18.66
2023-05-24T06:38:58.902Z,19.62
2023-05-24T06:41:26.666Z,18.69
2023-05-24T06:43:54.126Z,19.03
2023-05-24T06:46:21.671Z,18.76
2023-05-24T06:48:48.868Z,18.86
2023-05-24T06:51:16.172Z,17.22
2023-05-24T06:53:45.724Z,18.18
2023-05-24T06:56:12.905Z,18.34
2023-05-24T06:58:39.629Z,19.48
2023-05-24T07:01:06.416Z,19.17
2023-05-24T07:03:33.542Z,19.49
2023-05-24T07:06:00.385Z,18.90
2023-05-24T07:08:27.218Z,19.34
2023-05-24T07:10:56.868Z,20.12
2023-05-24T07:13:24.018Z,19.56
2023-05-24T07:15:53.380Z,20.81
2023-05-24T07:18:20.261Z,20.89
2023-05-24T07:20:47.935Z,20.13
2023-05-24T07:23:17.448Z,19.65
2023-05-24T07:25:44.178Z,20.17
2023-05-24T07:28:11.277Z,19.78
2023-05-24T07:30:38.426Z,20.38
2023-05-24T07:33:08.069Z,19.16
2023-05-24T07:35:35.145Z,19.81
2023-05-24T07:38:02.068Z,18.94
2023-05-24T07:40:31.689Z,19.19
2023-05-24T07:42:58.490Z,19.34
2023-05-24T07:45:25.689Z,19.59
2023-05-24T07:47:55.272Z,20.14
2023-05-24T07:50:23.310Z,20.80
2023-05-24T07:52:52.998Z,21.18
2023-05-24T07:55:20.412Z,22.32
2023-05-24T07:57:47.677Z,21.34
2023-05-24T08:00:15.226Z,21.95
2023-05-24T08:02:43.172Z,21.65
2023-05-24T08:05:13.106Z,21.08
2023-05-24T08:07:39.898Z,20.53
2023-05-24T08:10:09.004Z,21.50
2023-05-24T08:12:37.266Z,21.10
2023-05-24T08:15:05.061Z,21.59
2023-05-24T08:17:32.410Z,21.40
2023-05-24T08:19:59.547Z,21.49
2023-05-24T08:22:26.318Z,21.09
2023-05-24T08:24:53.097Z,20.33
2023-05-24T08:27:19.949Z,20.03
2023-05-24T08:29:46.860Z,20.85
2023-05-24T08:32:14.178Z,19.50
2023-05-24T08:34:40.972Z,20.70
2023-05-24T08:37:08.134Z,19.78
2023-05-24T08:39:34.979Z,19.13
2023-05-24T08:44:32.447Z,18.12
2023-05-24T08:47:02.186Z,18.11
2023-05-24T08:49:31.366Z,19.22
2023-05-24T08:52:00.120Z,18.63
2023-05-24T08:54:26.930Z,18.62
2023-05-24T08:56:54.021Z,18.28
2023-05-24T08:59:24.203Z,17.87
2023-05-24T09:01:52.989Z,17.56
2023-05-24T09:04:21.246Z,17.95
2023-05-24T09:06:49.411Z,17.67
2023-05-24T09:09:18.007Z,17.81
2023-05-24T09:11:45.236Z,16.98
2023-05-24T09:14:13.690Z,17.91
2023-05-24T09:16:40.930Z,18.11
2023-05-24T09:19:08.358Z,17.23
2023-05-24T09:21:35.490Z,17.48
2023-05-24T09:24:02.746Z,17.09
2023-05-24T09:26:30.034Z,16.77
2023-05-24T09:28:56.765Z,16.65
2023-05-24T09:31:37.178Z,17.05
2023-05-24T09:34:03.993Z,16.58
2023-05-24T09:36:31.105Z,16.48
2023-05-24T09:39:07.465Z,15.61
2023-05-24T09:41:37.341Z,15.96
2023-05-24T09:44:04.209Z,16.28
2023-05-24T09:46:36.984Z,15.47
2023-05-24T09:49:03.835Z,15.71
2023-05-24T09:51:31.030Z,15.49
2023-05-24T09:54:01.321Z,15.40
2023-05-24T09:56:28.110Z,15.84
2023-05-24T09:58:55.220Z,14.92
2023-05-24T10:01:23.087Z,14.09
2023-05-24T10:03:57.369Z,13.21
2023-05-24T10:06:24.372Z,14.35
2023-05-24T10:08:51.684Z,13.72
2023-05-24T10:11:18.788Z,13.79
2023-05-24T10:13:46.009Z,13.74
2023-05-24T10:16:12.753Z,13.87
2023-05-24T10:18:39.518Z,14.61
2023-05-24T10:21:06.373Z,13.77
2023-05-24T10:23:33.249Z,12.92
2023-05-24T10:26:10.111Z,13.18
2023-05-24T10:28:52.012Z,13.01
2023-05-24T10:31:21.889Z,13.24
2023-05-24T10:34:08.446Z,12.34
2023-05-24T10:36:36.387Z,12.71
2023-05-24T10:39:03.576Z,12.32
2023-05-24T10:41:30.337Z,12.42
2023-05-24T10:44:09.232Z,12.94
2023-05-24T10:46:36.954Z,13.14
2023-05-24T10:49:04.149Z,12.18
2023-05-24T10:51:37.451Z,12.41
2023-05-24T10:54:17.252Z,12.21
2023-05-24T10:56:51.168Z,12.25
2023-05-24T10:59:45.056Z,12.20
2023-05-24T11:02:24.227Z,12.70
2023-05-24T11:04:51.493Z,13.02
2023-05-24T11:07:18.678Z,12.16
2023-05-24T11:09:47.665Z,11.86
2023-05-24T11:12:16.063Z,11.87
2023-05-24T11:14:49.831Z,10.62
2023-05-24T11:17:16.969Z,10.29
2023-05-24T11:19:53.973Z,10.85
2023-05-24T11:22:22.169Z,10.44
2023-05-24T11:24:49.005Z,10.58
2023-05-24T11:27:16.128Z,10.37
2023-05-24T11:29:46.898Z,10.61
2023-05-24T11:32:17.757Z,11.11
2023-05-24T11:34:49.451Z,11.95
2023-05-24T11:37:17.987Z,12.01
2023-05-24T11:39:51.538Z,11.83
2023-05-24T11:42:18.743Z,11.62
2023-05-24T11:44:48.260Z,11.56
2023-05-24T11:47:15.236Z,11.50
2023-05-24T11:49:42.642Z,11.47
2023-05-24T11:52:10.648Z,10.88
2023-05-24T11:54:38.140Z,10.78
2023-05-24T11:57:05.525Z,10.14
2023-05-24T11:59:32.700Z,10.91
2023-05-24T12:02:04.785Z,10.97
2023-05-24T12:04:33.030Z,9.91
2023-05-24T12:06:59.892Z,9.94
2023-05-24T12:09:26.876Z,9.67
2023-05-24T12:11:53.646Z,9.45
2023-05-24T12:14:31.200Z,10.15
2023-05-24T12:17:00.126Z,10.63
2023-05-24T12:19:33.573Z,10.72
2023-05-24T12:22:01.469Z,10.30
2023-05-24T12:24:28.572Z,10.71
2023-05-24T12:27:01.379Z,11.54
2023-05-24T12:29:34.963Z,12.21
2023-05-24T12:32:02.917Z,12.27
2023-05-24T12:34:29.714Z,11.12
2023-05-24T12:36:56.484Z,11.36
2023-05-24T12:39:25.408Z,10.51
2023-05-24T12:41:56.137Z,10.94
2023-05-24T12:44:27.046Z,10.80
2023-05-24T12:46:57.253Z,10.61
2023-05-24T12:49:24.183Z,9.50
2023-05-24T12:51:51.426Z,9.92
2023-05-24T12:54:19.266Z,9.62
2023-05-24T12:56:46.254Z,10.57
2023-05-24T12:59:13.340Z,11.03
2023-05-24T13:01:40.499Z,10.61
2023-05-24T13:04:07.564Z,11.21
2023-05-24T13:06:34.347Z,11.44
2023-05-24T13:09:01.520Z,12.58
2023-05-24T13:11:28.285Z,11.91
2023-05-24T13:13:55.448Z,11.64
2023-05-24T13:16:22.608Z,10.86
2023-05-24T13:18:49.929Z,11.59
2023-05-24T13:21:17.172Z,11.90
2023-05-24T13:23:46.699Z,11.07
2023-05-24T13:26:13.995Z,12.23
2023-05-24T13:28:53.349Z,11.81
2023-05-24T13:31:28.120Z,12.09
2023-05-24T13:33:57.612Z,11.85
2023-05-24T13:36:27.517Z,11.71
2023-05-24T13:39:05.993Z,12.15
2023-05-24T13:41:40.816Z,12.00
2023-05-24T13:44:07.576Z,12.32
2023-05-24T13:46:35.395Z,11.78
2023-05-24T13:49:05.402Z,11.34
2023-05-24T13:51:35.137Z,11.33
2023-05-24T13:54:05.132Z,12.98
2023-05-24T13:56:32.097Z,12.58
2023-05-24T13:58:59.210Z,13.34
2023-05-24T14:01:29.092Z,13.53
2023-05-24T14:03:59.730Z,13.88
2023-05-24T14:06:26.916Z,12.86
2023-05-24T14:08:54.010Z,11.55
2023-05-24T14:11:20.732Z,10.89
2023-05-24T14:16:18.001Z,11.53
2023-05-24T14:18:46.011Z,11.28
2023-05-24T14:21:13.846Z,12.12
2023-05-24T14:23:41.556Z,11.71
2023-05-24T14:26:11.388Z,11.25
2023-05-24T14:28:39.114Z,10.91
2023-05-24T14:31:06.666Z,10.89
2023-05-24T14:33:33.851Z,10.78
2023-05-24T14:36:00.791Z,11.80
2023-05-24T14:38:30.385Z,12.65
2023-05-24T14:41:00.020Z,13.36
2023-05-24T14:43:26.992Z,13.29
2023-05-24T14:45:54.287Z,12.86
2023-05-24T14:48:21.129Z,13.17
2023-05-24T14:50:48.376Z,13.11
2023-05-24T14:53:15.174Z,12.51
2023-05-24T14:55:42.878Z,12.99
2023-05-24T14:58:18.293Z,13.52
2023-05-24T15:00:45.717Z,12.88
2023-05-24T15:03:13.213Z,13.17
2023-05-24T15:05:40.135Z,12.69
2023-05-24T15:08:07.102Z,12.15
2023-05-24T15:10:34.224Z,12.37
2023-05-24T15:13:01.947Z,12.42
2023-05-24T15:15:28.948Z,12.85
2023-05-24T15:17:56.222Z,12.46
2023-05-24T15:20:26.194Z,12.96
2023-05-24T15:22:53.063Z,13.85
2023-05-24T15:25:20.155Z,13.26
2023-05-24T15:27:47.493Z,12.83
2023-05-24T15:30:15.563Z,12.71
2023-05-24T15:32:42.891Z,12.69
2023-05-24T15:35:10.219Z,12.59
2023-05-24T15:37:37.296Z,12.74
2023-05-24T15:40:04.832Z,11.91
2023-05-24T15:42:32.173Z,11.76
2023-05-24T15:45:02.219Z,11.91
2023-05-24T15:47:31.816Z,12.84
2023-05-24T15:49:58.918Z,13.63
2023-05-24T15:52:26.057Z,13.62
2023-05-24T15:54:53.245Z,13.75
2023-05-24T15:57:20.316Z,13.80
2023-05-24T15:59:47.451Z,13.49
2023-05-24T16:02:14.339Z,13.19
2023-05-24T16:04:41.105Z,12.76
2023-05-24T16:07:08.402Z,12.34
2023-05-24T16:09:35.192Z,13.60
2023-05-24T16:12:05.112Z,13.28
2023-05-24T16:14:32.893Z,14.23
2023-05-24T16:17:01.626Z,14.34
2023-05-24T16:19:31.339Z,13.94
2023-05-24T16:21:58.214Z,13.60
2023-05-24T16:24:25.343Z,13.51
2023-05-24T16:26:52.347Z,13.09
2023-05-24T16:29:19.127Z,12.65
2023-05-24T16:31:46.062Z,12.91
2023-05-24T16:34:13.007Z,12.88
2023-05-24T16:36:40.035Z,12.95
2023-05-24T16:39:10.527Z,13.98
2023-05-24T16:41:37.551Z,13.78
2023-05-24T16:44:04.922Z,13.03
2023-05-24T16:46:32.009Z,12.60
2023-05-24T16:48:59.414Z,11.74
2023-05-24T16:51:26.486Z,11.97
2023-05-24T16:53:53.211Z,12.56
2023-05-24T16:56:19.921Z,12.22
2023-05-24T16:58:46.738Z,12.49
2023-05-24T17:01:13.990Z,11.75
2023-05-24T17:03:41.239Z,11.76
2023-05-24T17:06:08.031Z,12.01
2023-05-24T17:08:35.998Z,11.73
2023-05-24T17:11:03.509Z,12.44
2023-05-24T17:13:30.241Z,12.84
2023-05-24T17:15:57.429Z,12.88
2023-05-24T17:18:25.015Z,13.24
2023-05-24T17:20:51.756Z,13.22
2023-05-24T17:23:20.372Z,13.14
2023-05-24T17:25:47.867Z,12.88
2023-05-24T17:28:17.455Z,13.19
2023-05-24T17:30:44.435Z,12.63
2023-05-24T17:33:11.732Z,12.60
2023-05-24T17:35:41.701Z,13.14
2023-05-24T17:38:12.727Z,13.16
2023-05-24T17:40:39.983Z,13.31
2023-05-24T17:43:06.725Z,12.91
2023-05-24T17:45:33.986Z,13.04
2023-05-24T17:48:01.734Z,13.64
2023-05-24T17:50:31.978Z,12.64
2023-05-24T17:52:59.833Z,13.54
2023-05-24T17:55:27.213Z,13.08
2023-05-24T17:57:54.410Z,12.61
2023-05-24T18:00:21.969Z,12.31
2023-05-24T18:02:51.830Z,11.83
2023-05-24T18:05:19.166Z,11.65
2023-05-24T18:07:47.278Z,11.99
2023-05-24T18:10:14.085Z,12.04
2023-05-24T18:12:41.259Z,13.62
2023-05-24T18:15:08.353Z,13.91
2023-05-24T18:17:36.506Z,13.82
2023-05-24T18:20:04.678Z,13.15
2023-05-24T18:22:32.088Z,13.79
2023-05-24T18:24:59.861Z,14.31
2023-05-24T18:27:26.847Z,14.73
2023-05-24T18:29:53.612Z,14.21
2023-05-24T18:32:20.847Z,14.17
2023-05-24T18:34:47.958Z,14.75
2023-05-24T18:37:16.160Z,14.91
2023-05-24T18:39:42.967Z,15.76
2023-05-24T18:42:40.593Z,15.94
2023-05-24T18:45:10.576Z,15.38
2023-05-24T18:47:38.244Z,14.91
2023-05-24T18:50:06.637Z,14.96
2023-05-24T18:52:34.457Z,15.18
2023-05-24T18:55:02.641Z,15.32
2023-05-24T18:57:29.952Z,15.58
2023-05-24T18:59:57.739Z,14.44
2023-05-24T19:02:25.703Z,14.24
2023-05-24T19:04:52.487Z,14.86
2023-05-24T19:07:20.475Z,14.64
2023-05-24T19:09:47.769Z,14.66
2023-05-24T19:12:15.064Z,15.25
2023-05-24T19:14:44.916Z,14.42
2023-05-24T19:17:12.755Z,14.80
2023-05-24T19:19:39.956Z,15.04
2023-05-24T19:22:09.638Z,15.99
2023-05-24T19:24:38.140Z,16.26
2023-05-24T19:27:14.003Z,16.27
2023-05-24T19:29:41.175Z,16.08
2023-05-24T19:32:08.315Z,16.82
2023-05-24T19:34:35.285Z,16.98
2023-05-24T19:37:02.810Z,16.86
2023-05-24T19:39:29.567Z,16.99
2023-05-24T19:41:56.793Z,17.26
2023-05-24T19:44:24.093Z,17.61
2023-05-24T19:46:53.785Z,17.51
2023-05-24T19:49:24.849Z,17.55
2023-05-24T19:51:55.092Z,17.91
2023-05-24T19:54:22.585Z,18.23
2023-05-24T19:56:49.787Z,18.09
2023-05-24T19:59:18.591Z,18.44
2023-05-24T20:01:46.829Z,17.80
2023-05-24T20:04:14.272Z,17.68
2023-05-24T20:06:41.257Z,18.01
2023-05-24T20:09:08.005Z,17.49
2023-05-24T20:11:35.123Z,17.55
2023-05-24T20:14:02.341Z,17.78
2023-05-24T20:16:32.478Z,18.09
2023-05-24T20:18:59.653Z,18.13
2023-05-24T20:21:26.394Z,18.81
2023-05-24T20:23:55.881Z,19.10
2023-05-24T20:26:24.589Z,18.53
2023-05-24T20:28:54.452Z,18.90
2023-05-24T20:31:21.189Z,19.15
2023-05-24T20:33:49.483Z,19.42
2023-05-24T20:36:17.274Z,20.52
2023-05-24T20:38:44.181Z,20.51
2023-05-24T20:41:10.999Z,19.90
2023-05-24T20:43:38.959Z,21.07
2023-05-24T20:46:06.472Z,21.82
2023-05-24T20:48:35.444Z,22.41
2023-05-24T20:51:02.760Z,21.33
2023-05-24T20:53:29.553Z,21.82
2023-05-24T20:55:56.350Z,22.14
2023-05-24T20:58:23.085Z,22.17
2023-05-24T21:00:50.426Z,22.53
2023-05-24T21:03:20.213Z,21.88
2023-05-24T21:05:48.346Z,23.01
2023-05-24T21:08:15.062Z,21.93
2023-05-24T21:10:41.875Z,22.17
2023-05-24T21:13:09.413Z,23.56
2023-05-24T21:15:36.639Z,23.00
2023-05-24T21:18:06.647Z,22.84
2023-05-24T21:20:33.438Z,23.19
2023-05-24T21:23:03.157Z,22.92
2023-05-24T21:25:30.408Z,23.51
2023-05-24T21:28:03.189Z,23.22
2023-05-24T21:30:30.176Z,24.38
2023-05-24T21:32:57.027Z,24.50
2023-05-24T21:35:23.764Z,24.85
2023-05-24T21:37:50.890Z,25.05
2023-05-24T21:40:18.350Z,25.48
2023-05-24T21:42:45.151Z,25.73
2023-05-24T21:45:12.061Z,25.84
2023-05-24T21:47:42.524Z,25.88
2023-05-24T21:50:09.504Z,25.13
2023-05-24T21:52:39.528Z,25.56
2023-05-24T21:55:07.801Z,25.48
2023-05-24T22:00:59.022Z,25.50
2023-05-24T22:03:26.064Z,26.18
2023-05-24T22:05:53.050Z,25.41
2023-05-24T22:08:20.230Z,25.11
2023-05-24T22:10:49.742Z,24.57
2023-05-24T22:13:16.886Z,24.66
2023-05-24T22:15:46.503Z,23.85
2023-05-24T22:18:13.620Z,23.21
2023-05-24T22:20:40.799Z,23.44
2023-05-24T22:23:11.000Z,22.95
2023-05-24T22:25:37.871Z,21.08
2023-05-24T22:28:06.198Z,20.96
2023-05-24T22:30:34.315Z,20.26
2023-05-24T22:33:01.651Z,20.42
2023-05-24T22:35:28.882Z,20.75
2023-05-24T22:37:57.479Z,20.13
2023-05-24T22:40:25.579Z,19.37
2023-05-24T22:42:53.410Z,19.17
2023-05-24T22:45:23.169Z,19.64
2023-05-24T22:47:52.748Z,19.71
2023-05-24T22:50:22.363Z,19.21
2023-05-24T22:52:49.513Z,19.36
2023-05-24T22:55:16.976Z,19.82
2023-05-24T22:57:44.050Z,19.93
2023-05-24T23:00:11.402Z,19.64
2023-05-24T23:02:38.355Z,19.07
2023-05-24T23:05:09.803Z,20.50
2023-05-24T23:07:37.828Z,19.22
2023-05-24T23:10:06.222Z,19.72
2023-05-24T23:12:33.329Z,19.56
2023-05-24T23:15:00.464Z,19.45
2023-05-24T23:17:27.354Z,19.46
2023-05-24T23:19:57.127Z,19.48
2023-05-24T23:22:24.583Z,19.99
2023-05-24T23:24:54.281Z,19.67
2023-05-24T23:27:21.486Z,19.87
2023-05-24T23:29:51.271Z,19.26
2023-05-24T23:32:18.400Z,19.33
2023-05-24T23:34:45.521Z,19.48
2023-05-24T23:37:15.238Z,18.81
2023-05-24T23:39:42.030Z,19.94
2023-05-24T23:42:09.159Z,20.16
2023-05-24T23:44:38.863Z,19.58
2023-05-24T23:47:05.668Z,18.20
2023-05-24T23:49:33.920Z,19.06
2023-05-24T23:52:01.072Z,19.38
2023-05-24T23:54:27.831Z,19.12
2023-05-24T23:56:54.736Z,18.72
2023-05-24T23:59:24.426Z,18.52
